Home > Products > Valid Products > TAF

000
FTUS41 KRNK 231307 AAA
TAFBLF
TAF AMD
KBLF 231307Z 2313/2412 30010G20KT P6SM SCT020
      TEMPO 2313/2315 BKN025
     FM231500 31013G25KT P6SM SCT030
     FM240000 31008KT P6SM SKC
     FM240600 VRB03KT P6SM SCT250=



000
FTUS41 KRNK 231135
TAFLWB
TAF
KLWB 231135Z 2312/2412 31009G18KT P6SM SCT035
      TEMPO 2312/2314 BKN030
     FM240000 31006KT P6SM SKC
     FM240600 00000KT P6SM SCT250=



000
FTUS41 KRNK 231135
TAFDAN
TAF
KDAN 231135Z 2312/2412 27008KT P6SM SKC
     FM231400 31013G23KT P6SM SKC
     FM240000 35006KT P6SM SKC
     FM240600 02003KT P6SM SKC=



000
FTUS41 KRNK 231135
TAFBLF
TAF
KBLF 231135Z 2312/2412 30010G20KT P6SM BKN025
     FM231500 31013G25KT P6SM SCT030
     FM240000 31008KT P6SM SKC
     FM240600 VRB03KT P6SM SCT250=



000
FTUS41 KRNK 231135
TAFLYH
TAF
KLYH 231135Z 2312/2412 27006KT P6SM FEW050
     FM231400 30010G18KT P6SM SKC
     FM232200 34007KT P6SM SKC
     FM240600 00000KT P6SM SKC=



000
FTUS41 KRNK 231135
TAFROA
TAF
KROA 231135Z 2312/2412 30010G20KT P6SM FEW040
     FM231400 32017G27KT P6SM SKC
     FM240000 32010KT P6SM SKC
     FM240600 29003KT P6SM SCT250=



000
FTUS41 KRNK 230539
TAFDAN
TAF
KDAN 230539Z 2306/2406 27008KT P6SM FEW080
     FM231400 31013G23KT P6SM SKC
     FM240000 35006KT P6SM SKC=



000
FTUS41 KRNK 230539
TAFBLF
TAF
KBLF 230539Z 2306/2406 30010G20KT P6SM FEW025
     FM231500 31013G25KT P6SM SCT030
     FM240000 31008KT P6SM SKC=



000
FTUS41 KRNK 230539
TAFLWB
TAF
KLWB 230539Z 2306/2406 31010G20KT P6SM SCT035
     FM240000 31006KT P6SM SKC=



000
FTUS41 KRNK 230539
TAFLYH
TAF
KLYH 230539Z 2306/2406 27006KT P6SM FEW070
     FM231400 30010G18KT P6SM SKC
     FM232200 34007KT P6SM SKC=



000
FTUS41 KRNK 230539
TAFROA
TAF
KROA 230539Z 2306/2406 30013G23KT P6SM FEW070
     FM231400 32017G27KT P6SM SKC
     FM240000 32010KT P6SM SKC=



000
FTUS41 KRNK 222336
TAFROA
TAF
KROA 222336Z 2300/2324 26008KT P6SM SCT050 BKN080
     FM230200 30013G23KT P6SM SCT040
     FM231400 32017G29KT P6SM SKC=



000
FTUS41 KRNK 222336
TAFLYH
TAF
KLYH 222336Z 2300/2324 24005KT P6SM SCT060 BKN090
     FM230400 27007KT P6SM SKC
     FM231400 28010G18KT P6SM SKC=



000
FTUS41 KRNK 222336
TAFLWB
TAF
KLWB 222336Z 2300/2324 25005KT P6SM SCT045 OVC070
      TEMPO 2300/2302 BKN045
     FM230200 27008G16KT P6SM BKN035
     FM230400 28007KT P6SM OVC030
     FM231400 29012G22KT P6SM SCT035=



000
FTUS41 KRNK 222336
TAFBLF
TAF
KBLF 222336Z 2300/2324 30010G20KT P6SM SCT035 BKN045 OVC080
     FM230200 30012G22KT P6SM BKN035
     FM230400 30010G20KT P6SM OVC025
     FM231500 31013G25KT P6SM SCT030=



000
FTUS41 KRNK 222336
TAFDAN
TAF
KDAN 222336Z 2300/2324 24006KT P6SM SCT060 BKN090
     FM230600 28008KT P6SM SKC
     FM231400 30013G23KT P6SM SKC=



000
FTUS41 KRNK 222118 AAA
TAFLWB
TAF AMD
KLWB 222118Z 2221/2318 27010G18KT P6SM BKN045 BKN070
     FM230000 30008KT P6SM BKN025
     FM230700 30008KT P6SM SCT030
     FM231500 30011G21KT P6SM SKC=



000
FTUS41 KRNK 222113 AAA
TAFDAN
TAF AMD
KDAN 222113Z 2221/2318 26010KT P6SM SCT050 BKN080
     FM230200 30010G18KT P6SM SCT060
     FM230600 30009KT P6SM SCT250
     FM231500 31012G25KT P6SM SKC=



000
FTUS41 KRNK 222012 AAC
TAFBLF
TAF AMD
KBLF 222012Z 2220/2318 26009KT P6SM SCT015 OVC050
     FM230100 31011KT P6SM BKN025
     FM230700 30012KT P6SM SCT020
     FM231400 30013G25KT P6SM SKC=



000
FTUS41 KRNK 222001 CCA
TAFBLF
TAF COR
KBLF 222001Z 2220/2318 VRB03KT P6SM SCT015 BKN025
     FM230100 31011KT P6SM BKN025
     FM230700 30012KT P6SM SCT020
     FM231400 30013G25KT P6SM SKC=



000
FTUS41 KRNK 222000 AAB
TAFBLF
TAF AMD
KBLF 222000Z 2220/2318 VRB05KT P6SM SCT015 OVC060
     FM230100 31011KT P6SM BKN025
     FM230700 30012KT P6SM SCT020
     FM231400 30013G25KT P6SM SKC=



000
FTUS41 KRNK 221841 AAA
TAFBLF
TAF AMD
KBLF 221841Z 2219/2318 26010KT P6SM BKN018 OVC040
     FM222000 29013G25KT P6SM BKN015 OVC030
     FM230100 31011KT P6SM BKN025
     FM230700 30012KT P6SM SCT020
     FM231400 30013G25KT P6SM SKC=



000
FTUS41 KRNK 221729 CCA
TAFLYH
TAF COR
KLYH 221729Z 2218/2318 25005KT P6SM OVC080
     FM221900 23008KT P6SM -SHRA OVC045
     FM222200 25010KT P6SM SCT050 BKN100
     FM230300 29012KT P6SM SCT045
     FM230600 28005KT P6SM SCT250
     FM231500 31010KT P6SM SKC=



000
FTUS41 KRNK 221727
TAFDAN
TAF
KDAN 221727Z 2218/2318 28011KT P6SM BKN120
     FM221900 26007KT P6SM VCSH BKN045 OVC100
     FM222100 26010G20KT 5SM -TSRA OVC035CB
     FM230200 30010KT P6SM SCT060
     FM230600 30009KT P6SM SCT250
     FM231500 31012G25KT P6SM SKC=



000
FTUS41 KRNK 221727
TAFLYH
TAF
KLYH 221727Z 2218/2318 25005KT P6SM OVC080
     FM222000 23008KT P6SM VCSH OVC045
     FM222200 25010KT P6SM SCT050 BKN100
     FM230300 29012KT P6SM SCT045
     FM230600 28005KT P6SM SCT250
     FM231500 31010KT P6SM SKC=



000
FTUS41 KRNK 221727
TAFBLF
TAF
KBLF 221727Z 2218/2318 30009KT P6SM -SHRA BKN025 OVC040
     FM222000 29013G25KT P6SM BKN015 OVC030
     FM230100 31011KT P6SM BKN025
     FM230700 30012KT P6SM SCT020
     FM231400 30013G25KT P6SM SKC=



000
FTUS41 KRNK 221727
TAFLWB
TAF
KLWB 221727Z 2218/2318 27007KT P6SM VCSH SCT030 OVC045
     FM222000 29012G25KT P6SM SCT020 OVC035
     FM230000 30008KT P6SM BKN025
     FM230700 30008KT P6SM SCT030
     FM231500 30011G21KT P6SM SKC=



000
FTUS41 KRNK 221727
TAFROA
TAF
KROA 221727Z 2218/2318 28012G25KT P6SM VCSH BKN050 BKN100
     FM222000 29012G22KT P6SM SCT050 BKN100
     FM230600 31013G25KT P6SM SCT040
     FM231400 31015G28KT P6SM SKC=



000
FTUS41 KRNK 221307 AAA
TAFBLF
TAF AMD
KBLF 221307Z 2213/2312 26007KT P6SM VCSH OVC060
     FM221600 29010KT 3SM -SHRA SCT015 OVC025
     FM222000 29013G25KT P6SM SCT018 OVC030
     FM230100 31011KT P6SM SKC
     FM230600 30012KT P6SM SCT250=



000
FTUS41 KRNK 221130
TAFLYH
TAF
KLYH 221130Z 2212/2312 00000KT P6SM SKC
     FM221600 23006KT P6SM SCT070 BKN120
     FM221900 23008KT 5SM -SHRA OVC035
     FM222200 25010KT P6SM SCT050 BKN100
     FM230300 29012KT P6SM SKC
     FM230600 28007KT P6SM BKN250=



000
FTUS41 KRNK 221130
TAFLWB
TAF
KLWB 221130Z 2212/2312 00000KT P6SM SCT080 BKN110
     FM221300 00000KT 4SM -SHRA SCT035 OVC090
     FM221600 24007KT 6SM -SHRA BKN030 BKN060
     FM221800 27010G20KT 3SM SHRA OVC025
     FM221900 29012G25KT P6SM OVC035
     FM230000 30008KT P6SM SCT120
     FM230600 30008KT P6SM BKN120=



000
FTUS41 KRNK 221130
TAFDAN
TAF
KDAN 221130Z 2212/2312 00000KT P6SM SKC
     FM221500 24007KT P6SM SCT060 BKN150
     FM221900 26007KT P6SM -RA BKN035 OVC100
     FM222200 26010G20KT 3SM -TSRA OVC025CB
     FM230300 30010KT P6SM SCT060
     FM230600 30009KT P6SM SKC=



000
FTUS41 KRNK 221130
TAFBLF
TAF
KBLF 221130Z 2212/2312 25006KT P6SM FEW060 SCT110
     FM221300 27008KT 6SM -SHRA BKN025 OVC080
     FM221600 29010KT 3SM -SHRA SCT015 OVC025
     FM222000 29013G25KT P6SM SCT018 OVC030
     FM230100 31011KT P6SM SKC
     FM230600 30012KT P6SM SCT250=



000
FTUS41 KRNK 221130
TAFROA
TAF
KROA 221130Z 2212/2312 33004KT P6SM FEW150 SCT250
     FM221600 26008KT P6SM -RA BKN050 BKN100
     FM221800 28010KT 5SM -SHRA OVC035
     FM222000 30012KT P6SM SCT050 BKN100
     FM230600 31017G24KT P6SM SKC=



000
FTUS41 KRNK 220537
TAFLWB
TAF
KLWB 220537Z 2206/2306 00000KT P6SM SKC
     FM220800 VRB03KT P6SM SCT050 BKN120
     FM221300 00000KT 4SM -SHRA SCT035 OVC090
     FM221600 24007KT 6SM -SHRA BKN030 BKN060
     FM221800 27010G20KT 3SM SHRA OVC025
     FM221900 29012G25KT P6SM OVC035
     FM230000 30008KT P6SM SCT120=



000
FTUS41 KRNK 220537
TAFROA
TAF
KROA 220537Z 2206/2306 00000KT P6SM OVC250
     FM221000 VRB03KT P6SM SCT060 BKN150
     FM221600 26008KT P6SM -RA BKN050 BKN100
     FM221800 28010KT 5SM -SHRA OVC035
     FM222000 30012KT P6SM SCT050 BKN100=



000
FTUS41 KRNK 220537
TAFDAN
TAF
KDAN 220537Z 2206/2306 21003KT P6SM SKC
     FM221500 24007KT P6SM SCT060 BKN150
     FM221900 26007KT P6SM -RA BKN035 OVC100
     FM222200 25010G20KT 3SM -TSRA OVC025CB
     FM230300 29009KT P6SM SCT060=



000
FTUS41 KRNK 220537
TAFLYH
TAF
KLYH 220537Z 2206/2306 00000KT P6SM SKC
     FM221100 00000KT P6SM BKN150
     FM221600 23006KT P6SM SCT070 BKN120
     FM221900 23008KT 5SM -SHRA OVC035
     FM222200 25010KT P6SM SCT050 BKN100
     FM230300 29012KT P6SM SKC=



000
FTUS41 KRNK 220537
TAFBLF
TAF
KBLF 220537Z 2206/2306 27006KT P6SM SKC
     FM221300 27008KT 6SM -SHRA BKN025 OVC080
     FM221600 29010KT 3SM -SHRA SCT015 OVC025
     FM222000 29013G25KT P6SM SCT018 OVC030
     FM230100 31011KT P6SM SKC=



000
FTUS41 KRNK 212330
TAFLYH
TAF
KLYH 212330Z 2200/2224 15006KT P6SM SCT250
     FM221100 00000KT P6SM BKN150
     FM221600 23006KT P6SM SCT070 BKN120
     FM221900 23008KT 5SM -SHRA OVC035
     FM222200 25010KT P6SM SCT050 BKN100=



000
FTUS41 KRNK 212330
TAFBLF
TAF
KBLF 212330Z 2200/2224 24008KT P6SM SCT120 BKN250
     FM220500 25006KT P6SM SCT060 BKN120
     FM221300 27008KT 6SM -SHRA BKN025 OVC080
     FM221600 29010KT 3SM -SHRA SCT015 OVC025
     FM222100 29013G25KT P6SM SCT018 OVC030=



000
FTUS41 KRNK 212330
TAFDAN
TAF
KDAN 212330Z 2200/2224 VRB03KT P6SM SCT250
     FM220000 17005KT P6SM BKN250
     FM221500 24007KT P6SM SCT060 BKN150
     FM221900 26007KT P6SM -RA BKN035 OVC100
     FM222200 25010G20KT 3SM -TSRA OVC025CB=



000
FTUS41 KRNK 212330
TAFLWB
TAF
KLWB 212330Z 2200/2224 17006KT P6SM SCT120
     FM220700 VRB03KT P6SM SCT050 BKN120
     FM221300 00000KT 4SM -SHRA SCT035 OVC090
     FM221600 24007KT 6SM -SHRA BKN030 BKN060
     FM221800 27010G20KT 3SM SHRA OVC025
     FM221900 29012G25KT P6SM OVC035=



000
FTUS41 KRNK 212330
TAFROA
TAF
KROA 212330Z 2200/2224 16009KT P6SM SCT080 BKN250
     FM220300 23005KT P6SM BKN250
     FM221000 VRB03KT P6SM SCT060 BKN150
     FM221600 26008KT P6SM -RA BKN050 BKN100
     FM221800 28010KT 5SM -SHRA OVC035
     FM222000 30012KT P6SM SCT050 BKN100=



000
FTUS41 KRNK 211721
TAFLWB
TAF
KLWB 211721Z 2118/2218 20006KT P6SM SCT250
     FM220700 VRB03KT P6SM SCT050 BKN120
     FM221300 00000KT 6SM -SHRA SCT035 OVC090
     FM221600 24007KT P6SM -SHRA BKN030 BKN060=



000
FTUS41 KRNK 211721
TAFBLF
TAF
KBLF 211721Z 2118/2218 24008KT P6SM BKN250
     FM220500 25006KT P6SM SCT060 BKN120
     FM221300 27008KT 6SM -SHRA BKN025 OVC080=



000
FTUS41 KRNK 211721
TAFROA
TAF
KROA 211721Z 2118/2218 16007KT P6SM SCT250
     FM220300 23005KT P6SM BKN250
     FM221000 VRB03KT P6SM SCT060 BKN150
     FM221600 26008KT P6SM BKN050 BKN100=



000
FTUS41 KRNK 211721
TAFDAN
TAF
KDAN 211721Z 2118/2218 VRB03KT P6SM SCT250
     FM220000 17005KT P6SM BKN250
     FM221500 24007KT P6SM SCT060 BKN150=



000
FTUS41 KRNK 211721
TAFLYH
TAF
KLYH 211721Z 2118/2218 VRB04KT P6SM SCT250
     FM221100 00000KT P6SM BKN150
     FM221600 23006KT P6SM SCT070 BKN120=



000
FTUS41 KRNK 211120
TAFDAN
TAF
KDAN 211120Z 2112/2212 06003KT P6SM FEW250
     FM212100 10005KT P6SM BKN250
     FM221100 22003KT P6SM SCT150 BKN250=



000
FTUS41 KRNK 211120
TAFROA
TAF
KROA 211120Z 2112/2212 13003KT P6SM SCT250
     FM212100 15006KT P6SM BKN250
     FM221100 VRB03KT P6SM SCT120 BKN200=



000
FTUS41 KRNK 211120
TAFBLF
TAF
KBLF 211120Z 2112/2212 13005KT P6SM SCT250
     FM211600 26007KT P6SM SCT150 BKN250
     FM221100 25006KT P6SM -RA SCT050 OVC080=



000
FTUS41 KRNK 211120
TAFLYH
TAF
KLYH 211120Z 2112/2212 05003KT P6SM FEW250
     FM212100 11005KT P6SM BKN250
     FM221100 00000KT P6SM SCT150 BKN250=



000
FTUS41 KRNK 211120
TAFLWB
TAF
KLWB 211120Z 2112/2212 VRB03KT P6SM SCT250
     FM211600 25005KT P6SM SCT150 BKN250
     FM221100 00000KT P6SM -RA SCT060 OVC090=



000
FTUS41 KRNK 210520
TAFLYH
TAF
KLYH 210520Z 2106/2206 05006KT P6SM FEW250
     FM212100 11005KT P6SM BKN250=



000
FTUS41 KRNK 210520
TAFBLF
TAF
KBLF 210520Z 2106/2206 15006KT P6SM SCT250
     FM211600 26007KT P6SM SCT150 BKN250=



000
FTUS41 KRNK 210520
TAFLWB
TAF
KLWB 210520Z 2106/2206 00000KT P6SM SCT250
     FM211600 25005KT P6SM SCT150 BKN250=



000
FTUS41 KRNK 210520
TAFROA
TAF
KROA 210520Z 2106/2206 13004KT P6SM SCT250
     FM212100 15006KT P6SM BKN250=



000
FTUS41 KRNK 210520
TAFDAN
TAF
KDAN 210520Z 2106/2206 07004KT P6SM FEW250
     FM212100 10005KT P6SM BKN250=



000
FTUS41 KRNK 210139 AAA
TAFDAN
TAF AMD
KDAN 210139Z 2102/2124 05007KT P6SM SCT250
     FM211400 03005KT P6SM SCT250
     FM212000 VRB04KT P6SM BKN250=



000
FTUS41 KRNK 210138 AAA
TAFLYH
TAF AMD
KLYH 210138Z 2102/2124 05007KT P6SM SCT250
     FM211400 01005KT P6SM SCT250
     FM212000 VRB04KT P6SM BKN250=



000
FTUS41 KRNK 202336
TAFLWB
TAF
KLWB 202336Z 2100/2124 11005KT P6SM SCT250
     FM211000 VRB03KT P6SM SCT250
     FM211400 25005KT P6SM BKN250=



000
FTUS41 KRNK 202336
TAFBLF
TAF
KBLF 202336Z 2100/2124 13007KT P6SM SCT250
     FM211300 26007KT P6SM BKN250=



000
FTUS41 KRNK 202336
TAFDAN
TAF
KDAN 202336Z 2100/2124 05008G16KT P6SM SCT250
     FM211400 03005KT P6SM SCT250
     FM212000 VRB04KT P6SM BKN250=



000
FTUS41 KRNK 202336
TAFLYH
TAF
KLYH 202336Z 2100/2124 05008G16KT P6SM SCT250
     FM211400 01005KT P6SM SCT250
     FM212000 VRB04KT P6SM BKN250=



000
FTUS41 KRNK 202336
TAFROA
TAF
KROA 202336Z 2100/2124 09008KT P6SM SCT250
     FM210300 08005KT P6SM SCT250
     FM211400 VRB04KT P6SM BKN250=



000
FTUS41 KRNK 201721
TAFDAN
TAF
KDAN 201721Z 2018/2118 04012G22KT P6SM BKN250
     FM210000 05009KT P6SM SCT250
     FM210600 03005KT P6SM SKC=



000
FTUS41 KRNK 201721
TAFROA
TAF
KROA 201721Z 2018/2118 06011KT P6SM SCT250
     FM210100 09003KT P6SM SCT250
     FM211400 VRB03KT P6SM BKN250=



000
FTUS41 KRNK 201721
TAFLWB
TAF
KLWB 201721Z 2018/2118 14008KT P6SM SCT250
     FM202300 09003KT P6SM SKC=



000
FTUS41 KRNK 201721
TAFBLF
TAF
KBLF 201721Z 2018/2118 11010KT P6SM SKC
     FM202300 13006KT P6SM SCT250
     FM211200 26006KT P6SM BKN250=



000
FTUS41 KRNK 201721
TAFLYH
TAF
KLYH 201721Z 2018/2118 05011G21KT P6SM SKC
     FM210000 05006KT P6SM SCT250
     FM211500 03004KT P6SM SCT250=



    US Dept of Commerce
    National Oceanic and Atmospheric Administration
    National Weather Service
    1325 East West Highway
    Silver Spring, MD 20910
    Page Author: NWS Internet Services Team
Disclaimer
Information Quality
Credits
Glossary
Privacy Policy
Freedom of Information Act (FOIA)
About Us
Career Opportunities